Oakfield, Tennessee
Current Conditions -  °F | °C
As of 8:53 AM on Monday 24 Nov 2014 (Local Time) from KMKL Reporting Station
Few Clouds Few Clouds  
Wind Chill:   Ceiling: Unl
Heat Index:   Visibility: 10mi
Dew Point:   Wind: 18mph
Humidity: 61%   Direction: 290°WNW
Pressure: 29.8"   Gusts: 25mph
Location:  35.72°N, 88.8°W
Report Text: KMKL 241453Z 29016G22KT 10SM FEW029 09/02 A2980 RMK AO2 PK WND 27027/1411 SLP090 T00890017 51058
Loading
Personal Weather Stations






























Interactive Weather Map New forecast layout! Learn more

10-Day Weather Forecast

Advertisements
Track Severe Weather on mobile